New Iberia, Louisiana
Current Conditions -  °F | °C
As of 8:53 AM on Wednesday 26 Nov 2014 (Local Time) from KARA Reporting Station
Clear Clear  
Wind Chill: 55°   Ceiling: Unl
Heat Index: 55°   Visibility: 10mi
Dew Point: 50°   Wind: 3mph
Humidity: 83%   Direction: 180°S
Pressure: 30.27"   Gusts: NA
Location:  30.01°N, 91.82°W
Report Text: KARA 261453Z 18003KT 10SM CLR 13/10 A3027 RMK AO2 SLP248 T01280100 50009
Loading
Personal Weather Stations






























Interactive Weather Map New forecast layout! Learn more

10-Day Weather Forecast

Advertisements
Track Severe Weather on mobile